Terminal Aerodrome Forecast
Issued by NWS

Current Version | Previous Version | Text Only | Print | Product List | Glossary Off
Versions: 1 2 3 4 5 6 7 8 9 10 11 12 13 14 15 16 17 18 19 20 21 22 23

000
FTUS41 KRNK 211815 AAA
TAFLWB
TAF AMD
KLWB 211815Z 2118/2218 26009KT P6SM VCSH SCT015 BKN035
      TEMPO 2118/2121 VRB20G35KT 3SM TSRA BKN025CB
     FM220000 00000KT P6SM BKN100
     FM220600 00000KT 5SM BR BKN070
     FM220800 00000KT 3SM BR SCT020
     FM221000 00000KT 1SM BR BKN020
     FM221400 VRB03KT P6SM BKN040=

USA.gov is the U.S. government's official web portal to all federal, state and local government web resources and services.